sensor_id;sensor_type;location;lat;lon;timestamp;P1;durP1;ratioP1;P2;durP2;ratioP2
65572;SDS011;52214;50.940;13.996;2022-10-16T00:01:22;19.63;;;10.18;;
65572;SDS011;52214;50.940;13.996;2022-10-16T00:03:49;18.80;;;11.23;;
65572;SDS011;52214;50.940;13.996;2022-10-16T00:06:17;22.63;;;10.57;;
65572;SDS011;52214;50.940;13.996;2022-10-16T00:08:44;18.83;;;10.63;;
65572;SDS011;52214;50.940;13.996;2022-10-16T00:11:18;20.08;;;10.95;;
65572;SDS011;52214;50.940;13.996;2022-10-16T00:13:47;22.23;;;12.35;;
65572;SDS011;52214;50.940;13.996;2022-10-16T00:16:14;23.42;;;12.05;;
65572;SDS011;52214;50.940;13.996;2022-10-16T00:18:41;22.50;;;12.07;;
65572;SDS011;52214;50.940;13.996;2022-10-16T00:21:08;23.58;;;13.43;;
65572;SDS011;52214;50.940;13.996;2022-10-16T00:23:39;25.35;;;13.85;;
65572;SDS011;52214;50.940;13.996;2022-10-16T00:26:07;25.48;;;13.35;;
65572;SDS011;52214;50.940;13.996;2022-10-16T00:28:35;26.40;;;14.03;;
65572;SDS011;52214;50.940;13.996;2022-10-16T00:31:04;28.50;;;15.30;;
65572;SDS011;52214;50.940;13.996;2022-10-16T00:33:32;27.00;;;14.75;;
65572;SDS011;52214;50.940;13.996;2022-10-16T00:35:58;26.08;;;15.15;;
65572;SDS011;52214;50.940;13.996;2022-10-16T00:38:25;25.08;;;14.13;;
65572;SDS011;52214;50.940;13.996;2022-10-16T00:40:50;27.03;;;14.63;;
65572;SDS011;52214;50.940;13.996;2022-10-16T00:48:39;26.10;;;13.48;;
65572;SDS011;52214;50.940;13.996;2022-10-16T00:51:06;22.38;;;12.20;;
65572;SDS011;52214;50.940;13.996;2022-10-16T00:53:33;25.42;;;14.02;;
65572;SDS011;52214;50.940;13.996;2022-10-16T00:56:00;25.87;;;14.03;;
65572;SDS011;52214;50.940;13.996;2022-10-16T00:58:29;29.50;;;14.85;;
65572;SDS011;52214;50.940;13.996;2022-10-16T01:00:54;27.20;;;14.43;;
65572;SDS011;52214;50.940;13.996;2022-10-16T01:03:24;28.27;;;14.40;;
65572;SDS011;52214;50.940;13.996;2022-10-16T01:06:07;28.52;;;15.05;;
65572;SDS011;52214;50.940;13.996;2022-10-16T01:08:58;29.40;;;15.05;;
65572;SDS011;52214;50.940;13.996;2022-10-16T01:14:50;29.17;;;15.55;;
65572;SDS011;52214;50.940;13.996;2022-10-16T01:17:31;28.40;;;14.77;;
65572;SDS011;52214;50.940;13.996;2022-10-16T01:20:12;30.08;;;15.52;;
65572;SDS011;52214;50.940;13.996;2022-10-16T01:25:23;28.55;;;15.02;;
65572;SDS011;52214;50.940;13.996;2022-10-16T01:27:56;30.23;;;14.93;;
65572;SDS011;52214;50.940;13.996;2022-10-16T01:30:25;27.20;;;14.60;;
65572;SDS011;52214;50.940;13.996;2022-10-16T01:32:54;26.83;;;14.43;;
65572;SDS011;52214;50.940;13.996;2022-10-16T01:35:29;27.00;;;14.35;;
65572;SDS011;52214;50.940;13.996;2022-10-16T01:38:03;25.55;;;13.80;;
65572;SDS011;52214;50.940;13.996;2022-10-16T01:40:34;24.40;;;13.32;;
65572;SDS011;52214;50.940;13.996;2022-10-16T01:43:12;24.47;;;12.23;;
65572;SDS011;52214;50.940;13.996;2022-10-16T01:45:40;25.13;;;13.02;;
65572;SDS011;52214;50.940;13.996;2022-10-16T01:48:09;25.15;;;13.48;;
65572;SDS011;52214;50.940;13.996;2022-10-16T01:50:39;24.98;;;13.63;;
65572;SDS011;52214;50.940;13.996;2022-10-16T01:53:08;25.40;;;13.32;;
65572;SDS011;52214;50.940;13.996;2022-10-16T01:55:38;24.53;;;12.93;;
65572;SDS011;52214;50.940;13.996;2022-10-16T01:58:10;24.52;;;13.35;;
65572;SDS011;52214;50.940;13.996;2022-10-16T02:00:38;23.40;;;13.13;;
65572;SDS011;52214;50.940;13.996;2022-10-16T02:03:07;24.85;;;13.07;;
65572;SDS011;52214;50.940;13.996;2022-10-16T02:05:40;26.08;;;12.65;;
65572;SDS011;52214;50.940;13.996;2022-10-16T02:08:10;22.37;;;12.73;;
65572;SDS011;52214;50.940;13.996;2022-10-16T02:10:36;22.50;;;12.57;;
65572;SDS011;52214;50.940;13.996;2022-10-16T02:13:06;22.05;;;12.57;;
65572;SDS011;52214;50.940;13.996;2022-10-16T02:15:44;20.60;;;12.10;;
65572;SDS011;52214;50.940;13.996;2022-10-16T02:18:09;19.43;;;11.13;;
65572;SDS011;52214;50.940;13.996;2022-10-16T02:20:48;21.83;;;12.18;;
65572;SDS011;52214;50.940;13.996;2022-10-16T02:26:12;21.33;;;11.43;;
65572;SDS011;52214;50.940;13.996;2022-10-16T02:28:46;19.50;;;11.82;;
65572;SDS011;52214;50.940;13.996;2022-10-16T02:31:18;18.77;;;11.43;;
65572;SDS011;52214;50.940;13.996;2022-10-16T02:33:48;20.98;;;12.45;;
65572;SDS011;52214;50.940;13.996;2022-10-16T02:36:16;21.25;;;11.50;;
65572;SDS011;52214;50.940;13.996;2022-10-16T02:38:41;22.97;;;11.73;;
65572;SDS011;52214;50.940;13.996;2022-10-16T02:41:07;19.77;;;11.23;;
65572;SDS011;52214;50.940;13.996;2022-10-16T02:43:33;21.02;;;11.85;;
65572;SDS011;52214;50.940;13.996;2022-10-16T02:45:59;18.20;;;10.70;;
65572;SDS011;52214;50.940;13.996;2022-10-16T02:48:25;17.93;;;11.20;;
65572;SDS011;52214;50.940;13.996;2022-10-16T02:50:50;19.27;;;11.27;;
65572;SDS011;52214;50.940;13.996;2022-10-16T02:53:16;19.57;;;11.20;;
65572;SDS011;52214;50.940;13.996;2022-10-16T02:55:42;19.67;;;11.77;;
65572;SDS011;52214;50.940;13.996;2022-10-16T02:58:07;17.17;;;10.93;;
65572;SDS011;52214;50.940;13.996;2022-10-16T03:00:33;18.40;;;10.63;;
65572;SDS011;52214;50.940;13.996;2022-10-16T03:02:58;19.73;;;11.53;;
65572;SDS011;52214;50.940;13.996;2022-10-16T03:05:24;19.93;;;10.60;;
65572;SDS011;52214;50.940;13.996;2022-10-16T03:07:50;18.42;;;10.50;;
65572;SDS011;52214;50.940;13.996;2022-10-16T03:10:15;20.63;;;10.93;;
65572;SDS011;52214;50.940;13.996;2022-10-16T03:12:41;18.47;;;10.73;;
65572;SDS011;52214;50.940;13.996;2022-10-16T03:15:06;17.15;;;10.77;;
65572;SDS011;52214;50.940;13.996;2022-10-16T03:17:32;18.70;;;11.07;;
65572;SDS011;52214;50.940;13.996;2022-10-16T03:19:58;19.27;;;11.10;;
65572;SDS011;52214;50.940;13.996;2022-10-16T03:22:24;20.40;;;11.63;;
65572;SDS011;52214;50.940;13.996;2022-10-16T03:24:49;18.85;;;11.30;;
65572;SDS011;52214;50.940;13.996;2022-10-16T03:27:15;21.70;;;12.03;;
65572;SDS011;52214;50.940;13.996;2022-10-16T03:29:40;19.10;;;11.40;;
65572;SDS011;52214;50.940;13.996;2022-10-16T03:32:06;18.05;;;11.32;;
65572;SDS011;52214;50.940;13.996;2022-10-16T03:34:31;18.63;;;10.83;;
65572;SDS011;52214;50.940;13.996;2022-10-16T03:36:57;20.17;;;11.43;;
65572;SDS011;52214;50.940;13.996;2022-10-16T03:39:22;19.20;;;10.98;;
65572;SDS011;52214;50.940;13.996;2022-10-16T03:41:48;18.67;;;10.63;;
65572;SDS011;52214;50.940;13.996;2022-10-16T03:44:13;17.37;;;10.13;;
65572;SDS011;52214;50.940;13.996;2022-10-16T03:46:39;16.80;;;10.35;;
65572;SDS011;52214;50.940;13.996;2022-10-16T03:49:05;15.10;;;8.70;;
65572;SDS011;52214;50.940;13.996;2022-10-16T03:51:30;16.60;;;9.30;;
65572;SDS011;52214;50.940;13.996;2022-10-16T03:53:56;14.20;;;8.63;;
65572;SDS011;52214;50.940;13.996;2022-10-16T03:56:22;14.10;;;8.60;;
65572;SDS011;52214;50.940;13.996;2022-10-16T03:58:47;12.82;;;7.93;;
65572;SDS011;52214;50.940;13.996;2022-10-16T04:01:13;12.00;;;7.57;;
65572;SDS011;52214;50.940;13.996;2022-10-16T04:03:38;13.30;;;8.07;;
65572;SDS011;52214;50.940;13.996;2022-10-16T04:06:04;13.27;;;8.02;;
65572;SDS011;52214;50.940;13.996;2022-10-16T04:08:29;12.18;;;8.30;;
65572;SDS011;52214;50.940;13.996;2022-10-16T04:10:55;12.87;;;8.00;;
65572;SDS011;52214;50.940;13.996;2022-10-16T04:13:20;15.95;;;8.95;;
65572;SDS011;52214;50.940;13.996;2022-10-16T04:15:46;14.23;;;8.70;;
65572;SDS011;52214;50.940;13.996;2022-10-16T04:18:11;13.80;;;8.13;;
65572;SDS011;52214;50.940;13.996;2022-10-16T04:20:37;13.93;;;8.60;;
65572;SDS011;52214;50.940;13.996;2022-10-16T04:23:03;16.25;;;8.65;;
65572;SDS011;52214;50.940;13.996;2022-10-16T04:25:28;12.52;;;8.50;;
65572;SDS011;52214;50.940;13.996;2022-10-16T04:27:54;12.15;;;8.45;;
65572;SDS011;52214;50.940;13.996;2022-10-16T04:30:21;12.57;;;8.30;;
65572;SDS011;52214;50.940;13.996;2022-10-16T04:32:48;13.30;;;8.60;;
65572;SDS011;52214;50.940;13.996;2022-10-16T04:35:15;12.27;;;8.23;;
65572;SDS011;52214;50.940;13.996;2022-10-16T04:37:41;13.40;;;8.68;;
65572;SDS011;52214;50.940;13.996;2022-10-16T04:40:07;14.00;;;8.90;;
65572;SDS011;52214;50.940;13.996;2022-10-16T04:42:32;16.13;;;9.20;;
65572;SDS011;52214;50.940;13.996;2022-10-16T04:44:58;16.33;;;9.57;;
65572;SDS011;52214;50.940;13.996;2022-10-16T04:47:23;18.80;;;10.53;;
65572;SDS011;52214;50.940;13.996;2022-10-16T04:49:49;18.08;;;10.88;;
65572;SDS011;52214;50.940;13.996;2022-10-16T04:52:14;19.67;;;10.10;;
65572;SDS011;52214;50.940;13.996;2022-10-16T04:54:40;21.93;;;11.57;;
65572;SDS011;52214;50.940;13.996;2022-10-16T04:57:05;20.95;;;11.88;;
65572;SDS011;52214;50.940;13.996;2022-10-16T04:59:31;24.17;;;12.87;;
65572;SDS011;52214;50.940;13.996;2022-10-16T05:01:57;23.30;;;12.50;;
65572;SDS011;52214;50.940;13.996;2022-10-16T05:04:22;23.58;;;12.80;;
65572;SDS011;52214;50.940;13.996;2022-10-16T05:06:48;23.60;;;12.57;;
65572;SDS011;52214;50.940;13.996;2022-10-16T05:09:14;24.17;;;12.87;;
65572;SDS011;52214;50.940;13.996;2022-10-16T05:11:39;23.23;;;13.10;;
65572;SDS011;52214;50.940;13.996;2022-10-16T05:14:05;23.35;;;12.80;;
65572;SDS011;52214;50.940;13.996;2022-10-16T05:16:31;25.33;;;12.63;;
65572;SDS011;52214;50.940;13.996;2022-10-16T05:18:56;22.70;;;12.73;;
65572;SDS011;52214;50.940;13.996;2022-10-16T05:21:22;22.73;;;12.57;;
65572;SDS011;52214;50.940;13.996;2022-10-16T05:23:47;20.93;;;11.67;;
65572;SDS011;52214;50.940;13.996;2022-10-16T05:26:13;22.23;;;13.18;;
65572;SDS011;52214;50.940;13.996;2022-10-16T05:28:38;21.57;;;12.20;;
65572;SDS011;52214;50.940;13.996;2022-10-16T05:31:07;19.87;;;11.73;;
65572;SDS011;52214;50.940;13.996;2022-10-16T05:33:34;20.25;;;12.02;;
65572;SDS011;52214;50.940;13.996;2022-10-16T05:36:04;19.57;;;12.73;;
65572;SDS011;52214;50.940;13.996;2022-10-16T05:38:32;19.38;;;11.90;;
65572;SDS011;52214;50.940;13.996;2022-10-16T05:41:02;20.83;;;12.00;;
65572;SDS011;52214;50.940;13.996;2022-10-16T05:43:28;19.05;;;11.25;;
65572;SDS011;52214;50.940;13.996;2022-10-16T05:46:03;18.60;;;11.18;;
65572;SDS011;52214;50.940;13.996;2022-10-16T05:48:30;20.07;;;11.57;;
65572;SDS011;52214;50.940;13.996;2022-10-16T05:51:04;20.15;;;12.40;;
65572;SDS011;52214;50.940;13.996;2022-10-16T05:53:34;19.45;;;11.98;;
65572;SDS011;52214;50.940;13.996;2022-10-16T05:56:01;18.65;;;12.07;;
65572;SDS011;52214;50.940;13.996;2022-10-16T05:58:30;20.00;;;11.63;;
65572;SDS011;52214;50.940;13.996;2022-10-16T06:01:02;20.47;;;11.67;;
65572;SDS011;52214;50.940;13.996;2022-10-16T06:03:30;20.65;;;12.07;;
65572;SDS011;52214;50.940;13.996;2022-10-16T06:05:56;18.48;;;12.13;;
65572;SDS011;52214;50.940;13.996;2022-10-16T06:08:22;17.57;;;10.90;;
65572;SDS011;52214;50.940;13.996;2022-10-16T06:10:48;20.85;;;12.07;;
65572;SDS011;52214;50.940;13.996;2022-10-16T06:13:25;19.58;;;12.27;;
65572;SDS011;52214;50.940;13.996;2022-10-16T06:15:51;20.47;;;12.07;;
65572;SDS011;52214;50.940;13.996;2022-10-16T06:18:16;18.10;;;11.60;;
65572;SDS011;52214;50.940;13.996;2022-10-16T06:20:42;19.60;;;11.93;;
65572;SDS011;52214;50.940;13.996;2022-10-16T06:23:07;19.37;;;12.53;;
65572;SDS011;52214;50.940;13.996;2022-10-16T06:25:33;19.17;;;11.93;;
65572;SDS011;52214;50.940;13.996;2022-10-16T06:27:58;18.05;;;11.75;;
65572;SDS011;52214;50.940;13.996;2022-10-16T06:30:24;20.83;;;12.23;;
65572;SDS011;52214;50.940;13.996;2022-10-16T06:32:49;19.40;;;11.90;;
65572;SDS011;52214;50.940;13.996;2022-10-16T06:35:15;20.50;;;11.90;;
65572;SDS011;52214;50.940;13.996;2022-10-16T06:37:40;19.05;;;12.40;;
65572;SDS011;52214;50.940;13.996;2022-10-16T06:40:06;17.70;;;11.77;;
65572;SDS011;52214;50.940;13.996;2022-10-16T06:42:32;18.00;;;11.73;;
65572;SDS011;52214;50.940;13.996;2022-10-16T06:44:57;17.37;;;11.77;;
65572;SDS011;52214;50.940;13.996;2022-10-16T06:47:23;18.13;;;11.38;;
65572;SDS011;52214;50.940;13.996;2022-10-16T06:49:48;16.83;;;11.07;;
65572;SDS011;52214;50.940;13.996;2022-10-16T06:52:14;17.23;;;11.83;;
65572;SDS011;52214;50.940;13.996;2022-10-16T06:54:39;15.93;;;11.13;;
65572;SDS011;52214;50.940;13.996;2022-10-16T06:57:05;15.57;;;10.55;;
65572;SDS011;52214;50.940;13.996;2022-10-16T06:59:30;15.43;;;10.73;;
65572;SDS011;52214;50.940;13.996;2022-10-16T07:01:56;15.93;;;11.03;;
65572;SDS011;52214;50.940;13.996;2022-10-16T07:04:22;15.05;;;10.02;;
65572;SDS011;52214;50.940;13.996;2022-10-16T07:06:47;13.77;;;9.90;;
65572;SDS011;52214;50.940;13.996;2022-10-16T07:09:13;12.93;;;9.23;;
65572;SDS011;52214;50.940;13.996;2022-10-16T07:11:38;13.70;;;9.60;;
65572;SDS011;52214;50.940;13.996;2022-10-16T07:14:05;14.03;;;9.67;;
65572;SDS011;52214;50.940;13.996;2022-10-16T07:16:36;13.30;;;8.80;;
65572;SDS011;52214;50.940;13.996;2022-10-16T07:19:02;11.80;;;8.05;;
65572;SDS011;52214;50.940;13.996;2022-10-16T07:21:31;14.00;;;8.67;;
65572;SDS011;52214;50.940;13.996;2022-10-16T07:24:00;12.63;;;7.88;;
65572;SDS011;52214;50.940;13.996;2022-10-16T07:26:27;10.90;;;7.82;;
65572;SDS011;52214;50.940;13.996;2022-10-16T07:28:55;10.80;;;7.68;;
65572;SDS011;52214;50.940;13.996;2022-10-16T07:31:21;12.97;;;8.00;;
65572;SDS011;52214;50.940;13.996;2022-10-16T07:33:50;10.13;;;7.40;;
65572;SDS011;52214;50.940;13.996;2022-10-16T07:36:17;11.75;;;8.25;;
65572;SDS011;52214;50.940;13.996;2022-10-16T07:38:43;10.63;;;7.50;;
65572;SDS011;52214;50.940;13.996;2022-10-16T07:41:16;10.18;;;7.50;;
65572;SDS011;52214;50.940;13.996;2022-10-16T07:43:46;9.80;;;7.30;;
65572;SDS011;52214;50.940;13.996;2022-10-16T07:46:13;8.98;;;6.57;;
65572;SDS011;52214;50.940;13.996;2022-10-16T07:48:39;10.25;;;6.63;;
65572;SDS011;52214;50.940;13.996;2022-10-16T07:51:06;10.27;;;6.60;;
65572;SDS011;52214;50.940;13.996;2022-10-16T07:53:32;10.77;;;6.60;;
65572;SDS011;52214;50.940;13.996;2022-10-16T07:55:58;8.55;;;6.35;;
65572;SDS011;52214;50.940;13.996;2022-10-16T07:58:25;12.07;;;7.88;;
65572;SDS011;52214;50.940;13.996;2022-10-16T08:00:53;9.55;;;6.93;;
65572;SDS011;52214;50.940;13.996;2022-10-16T08:03:18;9.90;;;7.50;;
65572;SDS011;52214;50.940;13.996;2022-10-16T08:05:44;9.10;;;6.90;;
65572;SDS011;52214;50.940;13.996;2022-10-16T08:08:12;11.30;;;7.50;;
65572;SDS011;52214;50.940;13.996;2022-10-16T08:10:38;12.50;;;7.35;;
65572;SDS011;52214;50.940;13.996;2022-10-16T08:13:04;10.97;;;6.97;;
65572;SDS011;52214;50.940;13.996;2022-10-16T08:15:30;11.10;;;8.10;;
65572;SDS011;52214;50.940;13.996;2022-10-16T08:18:02;11.20;;;7.90;;
65572;SDS011;52214;50.940;13.996;2022-10-16T08:20:30;12.73;;;8.30;;
65572;SDS011;52214;50.940;13.996;2022-10-16T08:22:56;14.87;;;8.17;;
65572;SDS011;52214;50.940;13.996;2022-10-16T08:25:22;11.18;;;8.68;;
65572;SDS011;52214;50.940;13.996;2022-10-16T08:27:48;13.13;;;8.85;;
65572;SDS011;52214;50.940;13.996;2022-10-16T08:30:15;12.80;;;8.55;;
65572;SDS011;52214;50.940;13.996;2022-10-16T08:32:42;12.40;;;8.73;;
65572;SDS011;52214;50.940;13.996;2022-10-16T08:35:11;12.55;;;8.65;;
65572;SDS011;52214;50.940;13.996;2022-10-16T08:37:38;16.52;;;9.38;;
65572;SDS011;52214;50.940;13.996;2022-10-16T08:40:05;13.47;;;9.07;;
65572;SDS011;52214;50.940;13.996;2022-10-16T08:50:36;11.95;;;8.77;;
65572;SDS011;52214;50.940;13.996;2022-10-16T08:53:04;12.93;;;8.57;;
65572;SDS011;52214;50.940;13.996;2022-10-16T08:55:38;11.57;;;8.27;;
65572;SDS011;52214;50.940;13.996;2022-10-16T08:58:21;10.85;;;7.40;;
65572;SDS011;52214;50.940;13.996;2022-10-16T09:00:49;12.85;;;7.88;;
65572;SDS011;52214;50.940;13.996;2022-10-16T09:05:49;9.90;;;7.03;;
65572;SDS011;52214;50.940;13.996;2022-10-16T09:14:40;11.35;;;6.78;;
65572;SDS011;52214;50.940;13.996;2022-10-16T09:19:52;9.10;;;6.13;;
65572;SDS011;52214;50.940;13.996;2022-10-16T09:22:39;8.38;;;5.65;;
65572;SDS011;52214;50.940;13.996;2022-10-16T09:25:10;8.75;;;5.53;;
65572;SDS011;52214;50.940;13.996;2022-10-16T09:27:38;7.73;;;5.07;;
65572;SDS011;52214;50.940;13.996;2022-10-16T09:30:10;7.03;;;4.75;;
65572;SDS011;52214;50.940;13.996;2022-10-16T09:32:41;6.65;;;4.53;;
65572;SDS011;52214;50.940;13.996;2022-10-16T09:35:13;6.53;;;4.43;;
65572;SDS011;52214;50.940;13.996;2022-10-16T09:37:52;6.88;;;4.10;;
65572;SDS011;52214;50.940;13.996;2022-10-16T09:40:26;6.50;;;4.07;;
65572;SDS011;52214;50.940;13.996;2022-10-16T09:42:57;5.40;;;3.83;;
65572;SDS011;52214;50.940;13.996;2022-10-16T09:45:55;6.10;;;4.03;;
65572;SDS011;52214;50.940;13.996;2022-10-16T09:48:25;6.13;;;4.10;;
65572;SDS011;52214;50.940;13.996;2022-10-16T09:50:56;5.40;;;3.65;;
65572;SDS011;52214;50.940;13.996;2022-10-16T09:53:27;6.60;;;4.15;;
65572;SDS011;52214;50.940;13.996;2022-10-16T09:56:10;5.38;;;3.85;;
65572;SDS011;52214;50.940;13.996;2022-10-16T09:58:49;6.53;;;3.97;;
65572;SDS011;52214;50.940;13.996;2022-10-16T10:01:17;5.63;;;4.10;;
65572;SDS011;52214;50.940;13.996;2022-10-16T10:03:44;5.43;;;3.75;;
65572;SDS011;52214;50.940;13.996;2022-10-16T10:06:44;5.60;;;3.90;;
65572;SDS011;52214;50.940;13.996;2022-10-16T10:11:57;6.40;;;4.10;;
65572;SDS011;52214;50.940;13.996;2022-10-16T10:17:09;6.13;;;4.00;;
65572;SDS011;52214;50.940;13.996;2022-10-16T10:19:56;6.60;;;3.90;;
65572;SDS011;52214;50.940;13.996;2022-10-16T10:22:30;5.18;;;3.60;;
65572;SDS011;52214;50.940;13.996;2022-10-16T10:33:23;4.88;;;3.40;;
65572;SDS011;52214;50.940;13.996;2022-10-16T10:39:08;5.93;;;4.10;;
65572;SDS011;52214;50.940;13.996;2022-10-16T10:53:13;7.50;;;5.30;;
65572;SDS011;52214;50.940;13.996;2022-10-16T10:56:16;6.93;;;5.37;;
65572;SDS011;52214;50.940;13.996;2022-10-16T10:58:52;7.95;;;5.38;;
65572;SDS011;52214;50.940;13.996;2022-10-16T11:07:13;5.80;;;4.68;;
65572;SDS011;52214;50.940;13.996;2022-10-16T11:09:50;7.33;;;5.30;;
65572;SDS011;52214;50.940;13.996;2022-10-16T11:15:15;8.25;;;5.63;;
65572;SDS011;52214;50.940;13.996;2022-10-16T11:17:46;5.82;;;5.00;;
65572;SDS011;52214;50.940;13.996;2022-10-16T11:20:18;6.05;;;5.10;;
65572;SDS011;52214;50.940;13.996;2022-10-16T11:25:51;8.05;;;5.20;;
65572;SDS011;52214;50.940;13.996;2022-10-16T11:28:35;5.90;;;5.20;;
65572;SDS011;52214;50.940;13.996;2022-10-16T11:31:08;6.57;;;4.80;;
65572;SDS011;52214;50.940;13.996;2022-10-16T11:34:12;5.97;;;4.60;;
65572;SDS011;52214;50.940;13.996;2022-10-16T11:36:51;7.07;;;5.20;;
65572;SDS011;52214;50.940;13.996;2022-10-16T11:39:28;5.70;;;4.50;;
65572;SDS011;52214;50.940;13.996;2022-10-16T11:47:27;6.28;;;4.43;;
65572;SDS011;52214;50.940;13.996;2022-10-16T11:50:23;9.33;;;5.47;;
65572;SDS011;52214;50.940;13.996;2022-10-16T11:55:46;5.80;;;4.13;;
65572;SDS011;52214;50.940;13.996;2022-10-16T12:09:15;8.13;;;4.60;;
65572;SDS011;52214;50.940;13.996;2022-10-16T12:11:49;6.85;;;4.93;;
65572;SDS011;52214;50.940;13.996;2022-10-16T12:19:24;6.03;;;4.15;;
65572;SDS011;52214;50.940;13.996;2022-10-16T12:21:52;5.10;;;3.75;;
65572;SDS011;52214;50.940;13.996;2022-10-16T12:27:00;6.03;;;4.60;;
65572;SDS011;52214;50.940;13.996;2022-10-16T12:34:54;6.15;;;4.38;;
65572;SDS011;52214;50.940;13.996;2022-10-16T12:37:28;7.07;;;4.33;;
65572;SDS011;52214;50.940;13.996;2022-10-16T12:39:59;5.70;;;4.10;;
65572;SDS011;52214;50.940;13.996;2022-10-16T12:42:54;5.78;;;4.10;;
65572;SDS011;52214;50.940;13.996;2022-10-16T12:45:29;7.10;;;4.88;;
65572;SDS011;52214;50.940;13.996;2022-10-16T12:47:57;5.60;;;4.30;;
65572;SDS011;52214;50.940;13.996;2022-10-16T12:50:38;6.05;;;4.30;;
65572;SDS011;52214;50.940;13.996;2022-10-16T12:53:21;5.68;;;4.10;;
65572;SDS011;52214;50.940;13.996;2022-10-16T12:58:38;6.93;;;4.20;;
65572;SDS011;52214;50.940;13.996;2022-10-16T13:20:25;6.32;;;4.20;;
65572;SDS011;52214;50.940;13.996;2022-10-16T13:23:18;6.90;;;3.90;;
65572;SDS011;52214;50.940;13.996;2022-10-16T13:25:55;7.80;;;5.20;;
65572;SDS011;52214;50.940;13.996;2022-10-16T13:28:27;5.90;;;4.00;;
65572;SDS011;52214;50.940;13.996;2022-10-16T13:30:56;6.00;;;3.85;;
65572;SDS011;52214;50.940;13.996;2022-10-16T13:33:35;5.45;;;3.65;;
65572;SDS011;52214;50.940;13.996;2022-10-16T13:36:02;7.75;;;3.67;;
65572;SDS011;52214;50.940;13.996;2022-10-16T13:38:32;6.82;;;3.80;;
65572;SDS011;52214;50.940;13.996;2022-10-16T13:41:01;5.03;;;3.30;;
65572;SDS011;52214;50.940;13.996;2022-10-16T13:43:47;5.30;;;3.50;;
65572;SDS011;52214;50.940;13.996;2022-10-16T13:46:17;6.03;;;3.72;;
65572;SDS011;52214;50.940;13.996;2022-10-16T13:48:44;5.68;;;3.25;;
65572;SDS011;52214;50.940;13.996;2022-10-16T13:51:21;4.25;;;2.22;;
65572;SDS011;52214;50.940;13.996;2022-10-16T13:53:47;4.97;;;2.83;;
65572;SDS011;52214;50.940;13.996;2022-10-16T13:56:13;4.13;;;2.80;;
65572;SDS011;52214;50.940;13.996;2022-10-16T13:58:41;5.67;;;2.97;;
65572;SDS011;52214;50.940;13.996;2022-10-16T14:01:17;5.13;;;2.78;;
65572;SDS011;52214;50.940;13.996;2022-10-16T14:03:49;5.55;;;3.05;;
65572;SDS011;52214;50.940;13.996;2022-10-16T14:06:17;4.35;;;2.83;;
65572;SDS011;52214;50.940;13.996;2022-10-16T14:08:50;5.32;;;3.20;;
65572;SDS011;52214;50.940;13.996;2022-10-16T14:11:23;5.53;;;2.80;;
65572;SDS011;52214;50.940;13.996;2022-10-16T14:13:50;7.93;;;3.45;;
65572;SDS011;52214;50.940;13.996;2022-10-16T14:16:20;7.75;;;3.95;;
65572;SDS011;52214;50.940;13.996;2022-10-16T14:19:02;7.20;;;3.70;;
65572;SDS011;52214;50.940;13.996;2022-10-16T14:21:32;5.50;;;3.63;;
65572;SDS011;52214;50.940;13.996;2022-10-16T14:23:59;7.73;;;4.37;;
65572;SDS011;52214;50.940;13.996;2022-10-16T14:26:27;9.05;;;5.55;;
65572;SDS011;52214;50.940;13.996;2022-10-16T14:29:08;18.13;;;6.43;;
65572;SDS011;52214;50.940;13.996;2022-10-16T14:31:37;17.38;;;7.70;;
65572;SDS011;52214;50.940;13.996;2022-10-16T14:34:05;10.85;;;6.30;;
65572;SDS011;52214;50.940;13.996;2022-10-16T14:36:54;10.60;;;5.80;;
65572;SDS011;52214;50.940;13.996;2022-10-16T14:39:21;11.48;;;7.00;;
65572;SDS011;52214;50.940;13.996;2022-10-16T14:41:49;7.43;;;4.00;;
65572;SDS011;52214;50.940;13.996;2022-10-16T14:44:18;11.50;;;5.72;;
65572;SDS011;52214;50.940;13.996;2022-10-16T14:46:51;5.15;;;2.47;;
65572;SDS011;52214;50.940;13.996;2022-10-16T14:49:17;4.53;;;2.65;;
65572;SDS011;52214;50.940;13.996;2022-10-16T14:51:45;5.70;;;2.67;;
65572;SDS011;52214;50.940;13.996;2022-10-16T14:54:12;7.00;;;2.95;;
65572;SDS011;52214;50.940;13.996;2022-10-16T14:56:48;6.10;;;3.80;;
65572;SDS011;52214;50.940;13.996;2022-10-16T14:59:26;7.03;;;3.65;;
65572;SDS011;52214;50.940;13.996;2022-10-16T15:01:55;5.57;;;3.45;;
65572;SDS011;52214;50.940;13.996;2022-10-16T15:04:21;5.13;;;3.23;;
65572;SDS011;52214;50.940;13.996;2022-10-16T15:06:47;6.75;;;3.60;;
65572;SDS011;52214;50.940;13.996;2022-10-16T15:09:12;8.37;;;4.20;;
65572;SDS011;52214;50.940;13.996;2022-10-16T15:11:38;9.07;;;4.30;;
65572;SDS011;52214;50.940;13.996;2022-10-16T15:14:04;8.27;;;4.37;;
65572;SDS011;52214;50.940;13.996;2022-10-16T15:16:30;7.65;;;4.68;;
65572;SDS011;52214;50.940;13.996;2022-10-16T15:18:56;10.98;;;4.53;;
65572;SDS011;52214;50.940;13.996;2022-10-16T15:21:24;7.10;;;4.70;;
65572;SDS011;52214;50.940;13.996;2022-10-16T15:23:55;6.45;;;4.10;;
65572;SDS011;52214;50.940;13.996;2022-10-16T15:26:22;8.75;;;4.53;;
65572;SDS011;52214;50.940;13.996;2022-10-16T15:28:49;8.75;;;4.93;;
65572;SDS011;52214;50.940;13.996;2022-10-16T15:31:14;6.00;;;4.20;;
65572;SDS011;52214;50.940;13.996;2022-10-16T15:33:40;8.35;;;4.57;;
65572;SDS011;52214;50.940;13.996;2022-10-16T15:36:06;6.95;;;4.90;;
65572;SDS011;52214;50.940;13.996;2022-10-16T15:38:32;7.85;;;4.75;;
65572;SDS011;52214;50.940;13.996;2022-10-16T15:40:57;6.83;;;4.40;;
65572;SDS011;52214;50.940;13.996;2022-10-16T15:43:23;8.67;;;4.60;;
65572;SDS011;52214;50.940;13.996;2022-10-16T15:45:58;7.68;;;4.50;;
65572;SDS011;52214;50.940;13.996;2022-10-16T15:48:25;7.73;;;4.70;;
65572;SDS011;52214;50.940;13.996;2022-10-16T15:50:51;7.40;;;4.20;;
65572;SDS011;52214;50.940;13.996;2022-10-16T15:53:16;7.50;;;4.63;;
65572;SDS011;52214;50.940;13.996;2022-10-16T15:55:42;9.38;;;4.70;;
65572;SDS011;52214;50.940;13.996;2022-10-16T15:58:07;8.25;;;5.38;;
65572;SDS011;52214;50.940;13.996;2022-10-16T16:00:33;10.17;;;5.23;;
65572;SDS011;52214;50.940;13.996;2022-10-16T16:02:58;7.93;;;4.53;;
65572;SDS011;52214;50.940;13.996;2022-10-16T16:05:24;7.82;;;4.50;;
65572;SDS011;52214;50.940;13.996;2022-10-16T16:07:50;9.07;;;5.17;;
65572;SDS011;52214;50.940;13.996;2022-10-16T16:10:16;81.45;;;7.63;;
65572;SDS011;52214;50.940;13.996;2022-10-16T16:12:42;40.08;;;6.35;;
65572;SDS011;52214;50.940;13.996;2022-10-16T16:15:08;11.13;;;5.30;;
65572;SDS011;52214;50.940;13.996;2022-10-16T16:17:35;9.65;;;4.90;;
65572;SDS011;52214;50.940;13.996;2022-10-16T16:20:02;7.82;;;5.30;;
65572;SDS011;52214;50.940;13.996;2022-10-16T16:22:29;10.35;;;4.82;;
65572;SDS011;52214;50.940;13.996;2022-10-16T16:24:55;27.37;;;5.60;;
65572;SDS011;52214;50.940;13.996;2022-10-16T16:27:20;8.67;;;5.27;;
65572;SDS011;52214;50.940;13.996;2022-10-16T16:29:46;9.70;;;5.20;;
65572;SDS011;52214;50.940;13.996;2022-10-16T16:32:12;9.40;;;5.55;;
65572;SDS011;52214;50.940;13.996;2022-10-16T16:34:38;9.50;;;6.03;;
65572;SDS011;52214;50.940;13.996;2022-10-16T16:37:03;13.70;;;6.37;;
65572;SDS011;52214;50.940;13.996;2022-10-16T16:39:29;10.85;;;6.75;;
65572;SDS011;52214;50.940;13.996;2022-10-16T16:41:55;10.33;;;7.00;;